sensor_id;sensor_type;location;lat;lon;timestamp;temperature;humidity
2955;DHT22;1487;51.470;6.938;2023-02-03T00:00:33;8.30;99.90
2955;DHT22;1487;51.470;6.938;2023-02-03T00:03:00;8.30;99.90
2955;DHT22;1487;51.470;6.938;2023-02-03T00:05:27;8.30;99.90
2955;DHT22;1487;51.470;6.938;2023-02-03T00:07:54;8.30;99.90
2955;DHT22;1487;51.470;6.938;2023-02-03T00:10:21;8.30;99.90
2955;DHT22;1487;51.470;6.938;2023-02-03T00:12:49;8.30;99.90
2955;DHT22;1487;51.470;6.938;2023-02-03T00:15:17;8.30;99.90
2955;DHT22;1487;51.470;6.938;2023-02-03T00:17:46;8.30;99.90
2955;DHT22;1487;51.470;6.938;2023-02-03T00:20:13;8.30;99.90
2955;DHT22;1487;51.470;6.938;2023-02-03T00:22:40;8.30;99.90
2955;DHT22;1487;51.470;6.938;2023-02-03T00:25:07;8.30;99.90
2955;DHT22;1487;51.470;6.938;2023-02-03T00:27:34;8.30;99.90
2955;DHT22;1487;51.470;6.938;2023-02-03T00:30:01;8.30;99.90
2955;DHT22;1487;51.470;6.938;2023-02-03T00:32:28;8.30;99.90
2955;DHT22;1487;51.470;6.938;2023-02-03T00:34:56;8.30;99.90
2955;DHT22;1487;51.470;6.938;2023-02-03T00:37:23;8.30;99.90
2955;DHT22;1487;51.470;6.938;2023-02-03T00:39:50;8.30;99.90
2955;DHT22;1487;51.470;6.938;2023-02-03T00:42:17;8.30;99.90
2955;DHT22;1487;51.470;6.938;2023-02-03T00:44:43;8.40;99.90
2955;DHT22;1487;51.470;6.938;2023-02-03T00:47:10;8.40;99.90
2955;DHT22;1487;51.470;6.938;2023-02-03T00:49:37;8.40;99.90
2955;DHT22;1487;51.470;6.938;2023-02-03T00:52:05;8.40;99.90
2955;DHT22;1487;51.470;6.938;2023-02-03T00:54:32;8.40;99.90
2955;DHT22;1487;51.470;6.938;2023-02-03T00:56:59;8.40;99.90
2955;DHT22;1487;51.470;6.938;2023-02-03T00:59:26;8.40;99.90
2955;DHT22;1487;51.470;6.938;2023-02-03T01:01:53;8.40;99.90
2955;DHT22;1487;51.470;6.938;2023-02-03T01:04:20;8.40;99.90
2955;DHT22;1487;51.470;6.938;2023-02-03T01:06:48;8.40;99.90
2955;DHT22;1487;51.470;6.938;2023-02-03T01:09:16;8.50;99.90
2955;DHT22;1487;51.470;6.938;2023-02-03T01:11:43;8.50;99.90
2955;DHT22;1487;51.470;6.938;2023-02-03T01:14:10;8.40;99.90
2955;DHT22;1487;51.470;6.938;2023-02-03T01:16:36;8.50;99.90
2955;DHT22;1487;51.470;6.938;2023-02-03T01:19:04;8.40;99.90
2955;DHT22;1487;51.470;6.938;2023-02-03T01:21:31;8.50;99.90
2955;DHT22;1487;51.470;6.938;2023-02-03T01:24:00;8.50;99.90
2955;DHT22;1487;51.470;6.938;2023-02-03T01:26:28;8.50;99.90
2955;DHT22;1487;51.470;6.938;2023-02-03T01:28:57;8.50;99.90
2955;DHT22;1487;51.470;6.938;2023-02-03T01:31:26;8.50;99.90
2955;DHT22;1487;51.470;6.938;2023-02-03T01:33:54;8.50;99.90
2955;DHT22;1487;51.470;6.938;2023-02-03T01:36:22;8.50;99.90
2955;DHT22;1487;51.470;6.938;2023-02-03T01:38:49;8.50;99.90
2955;DHT22;1487;51.470;6.938;2023-02-03T01:41:18;8.50;99.90
2955;DHT22;1487;51.470;6.938;2023-02-03T01:43:48;8.50;99.90
2955;DHT22;1487;51.470;6.938;2023-02-03T01:46:23;8.50;99.90
2955;DHT22;1487;51.470;6.938;2023-02-03T01:48:53;8.50;99.90
2955;DHT22;1487;51.470;6.938;2023-02-03T01:51:22;8.50;99.90
2955;DHT22;1487;51.470;6.938;2023-02-03T01:53:50;8.50;99.90
2955;DHT22;1487;51.470;6.938;2023-02-03T01:56:17;8.60;99.90
2955;DHT22;1487;51.470;6.938;2023-02-03T01:58:47;8.60;99.90
2955;DHT22;1487;51.470;6.938;2023-02-03T02:01:14;8.60;99.90
2955;DHT22;1487;51.470;6.938;2023-02-03T02:03:45;8.60;99.90
2955;DHT22;1487;51.470;6.938;2023-02-03T02:06:14;8.60;99.90
2955;DHT22;1487;51.470;6.938;2023-02-03T02:08:45;8.60;99.90
2955;DHT22;1487;51.470;6.938;2023-02-03T02:11:12;8.60;99.90
2955;DHT22;1487;51.470;6.938;2023-02-03T02:13:40;8.60;99.90
2955;DHT22;1487;51.470;6.938;2023-02-03T02:16:14;8.60;99.90
2955;DHT22;1487;51.470;6.938;2023-02-03T02:18:52;8.50;99.90
2955;DHT22;1487;51.470;6.938;2023-02-03T02:27:17;8.60;99.90
2955;DHT22;1487;51.470;6.938;2023-02-03T02:33:05;8.60;99.90
2955;DHT22;1487;51.470;6.938;2023-02-03T02:35:46;8.60;99.90
2955;DHT22;1487;51.470;6.938;2023-02-03T02:38:21;8.60;99.90
2955;DHT22;1487;51.470;6.938;2023-02-03T02:40:53;8.60;99.90
2955;DHT22;1487;51.470;6.938;2023-02-03T02:43:25;8.60;99.90
2955;DHT22;1487;51.470;6.938;2023-02-03T02:45:58;8.60;99.90
2955;DHT22;1487;51.470;6.938;2023-02-03T02:48:32;8.60;99.90
2955;DHT22;1487;51.470;6.938;2023-02-03T02:51:03;8.60;99.90
2955;DHT22;1487;51.470;6.938;2023-02-03T02:53:34;8.60;99.90
2955;DHT22;1487;51.470;6.938;2023-02-03T02:56:05;8.60;99.90
2955;DHT22;1487;51.470;6.938;2023-02-03T02:58:35;8.60;99.90
2955;DHT22;1487;51.470;6.938;2023-02-03T03:01:06;8.50;99.90
2955;DHT22;1487;51.470;6.938;2023-02-03T03:03:35;8.50;99.90
2955;DHT22;1487;51.470;6.938;2023-02-03T03:06:08;8.50;99.90
2955;DHT22;1487;51.470;6.938;2023-02-03T03:08:40;8.50;99.90
2955;DHT22;1487;51.470;6.938;2023-02-03T03:11:08;8.50;99.90
2955;DHT22;1487;51.470;6.938;2023-02-03T03:13:43;8.50;99.90
2955;DHT22;1487;51.470;6.938;2023-02-03T03:16:13;8.50;99.90
2955;DHT22;1487;51.470;6.938;2023-02-03T03:18:45;8.60;99.90
2955;DHT22;1487;51.470;6.938;2023-02-03T03:21:16;8.50;99.90
2955;DHT22;1487;51.470;6.938;2023-02-03T03:23:47;8.60;99.90
2955;DHT22;1487;51.470;6.938;2023-02-03T03:26:18;8.60;99.90
2955;DHT22;1487;51.470;6.938;2023-02-03T03:28:49;8.50;99.90
2955;DHT22;1487;51.470;6.938;2023-02-03T03:31:16;8.50;99.90
2955;DHT22;1487;51.470;6.938;2023-02-03T03:33:46;8.50;99.90
2955;DHT22;1487;51.470;6.938;2023-02-03T03:36:19;8.50;99.90
2955;DHT22;1487;51.470;6.938;2023-02-03T03:38:54;8.50;99.90
2955;DHT22;1487;51.470;6.938;2023-02-03T03:41:28;8.50;99.90
2955;DHT22;1487;51.470;6.938;2023-02-03T03:44:00;8.60;99.90
2955;DHT22;1487;51.470;6.938;2023-02-03T03:46:31;8.50;99.90
2955;DHT22;1487;51.470;6.938;2023-02-03T03:49:03;8.50;99.90
2955;DHT22;1487;51.470;6.938;2023-02-03T03:51:34;8.50;99.90
2955;DHT22;1487;51.470;6.938;2023-02-03T03:54:06;8.60;99.90
2955;DHT22;1487;51.470;6.938;2023-02-03T03:56:44;8.60;99.90
2955;DHT22;1487;51.470;6.938;2023-02-03T03:59:13;8.60;99.90
2955;DHT22;1487;51.470;6.938;2023-02-03T04:01:42;8.60;99.90
2955;DHT22;1487;51.470;6.938;2023-02-03T04:04:11;8.50;99.90
2955;DHT22;1487;51.470;6.938;2023-02-03T04:06:39;8.60;99.90
2955;DHT22;1487;51.470;6.938;2023-02-03T04:09:06;8.60;99.90
2955;DHT22;1487;51.470;6.938;2023-02-03T04:11:33;8.50;99.90
2955;DHT22;1487;51.470;6.938;2023-02-03T04:14:14;8.60;99.90
2955;DHT22;1487;51.470;6.938;2023-02-03T04:16:41;8.60;99.90
2955;DHT22;1487;51.470;6.938;2023-02-03T04:19:08;8.60;99.90
2955;DHT22;1487;51.470;6.938;2023-02-03T04:21:36;8.60;99.90
2955;DHT22;1487;51.470;6.938;2023-02-03T04:24:04;8.60;99.90
2955;DHT22;1487;51.470;6.938;2023-02-03T04:26:30;8.60;99.90
2955;DHT22;1487;51.470;6.938;2023-02-03T04:28:57;8.60;99.90
2955;DHT22;1487;51.470;6.938;2023-02-03T04:31:24;8.60;99.90
2955;DHT22;1487;51.470;6.938;2023-02-03T04:33:51;8.60;99.90
2955;DHT22;1487;51.470;6.938;2023-02-03T04:36:18;8.60;99.90
2955;DHT22;1487;51.470;6.938;2023-02-03T04:38:47;8.60;99.90
2955;DHT22;1487;51.470;6.938;2023-02-03T04:41:14;8.60;99.90
2955;DHT22;1487;51.470;6.938;2023-02-03T04:43:41;8.60;99.90
2955;DHT22;1487;51.470;6.938;2023-02-03T04:46:08;8.60;99.90
2955;DHT22;1487;51.470;6.938;2023-02-03T04:48:35;8.60;99.90
2955;DHT22;1487;51.470;6.938;2023-02-03T04:51:04;8.70;99.90
2955;DHT22;1487;51.470;6.938;2023-02-03T04:53:32;8.60;99.90
2955;DHT22;1487;51.470;6.938;2023-02-03T04:56:01;8.70;99.90
2955;DHT22;1487;51.470;6.938;2023-02-03T04:58:28;8.60;99.90
2955;DHT22;1487;51.470;6.938;2023-02-03T05:00:56;8.60;99.90
2955;DHT22;1487;51.470;6.938;2023-02-03T05:03:23;8.60;99.90
2955;DHT22;1487;51.470;6.938;2023-02-03T05:05:51;8.60;99.90
2955;DHT22;1487;51.470;6.938;2023-02-03T05:08:17;8.60;99.90
2955;DHT22;1487;51.470;6.938;2023-02-03T05:10:45;8.60;99.90
2955;DHT22;1487;51.470;6.938;2023-02-03T05:13:13;8.60;99.90
2955;DHT22;1487;51.470;6.938;2023-02-03T05:15:40;8.70;99.90
2955;DHT22;1487;51.470;6.938;2023-02-03T05:18:06;8.60;99.90
2955;DHT22;1487;51.470;6.938;2023-02-03T05:20:34;8.60;99.90
2955;DHT22;1487;51.470;6.938;2023-02-03T05:23:01;8.60;99.90
2955;DHT22;1487;51.470;6.938;2023-02-03T05:25:29;8.70;99.90
2955;DHT22;1487;51.470;6.938;2023-02-03T05:27:55;8.70;99.90
2955;DHT22;1487;51.470;6.938;2023-02-03T05:30:24;8.70;99.90
2955;DHT22;1487;51.470;6.938;2023-02-03T05:32:50;8.70;99.90
2955;DHT22;1487;51.470;6.938;2023-02-03T05:35:17;8.70;99.90
2955;DHT22;1487;51.470;6.938;2023-02-03T05:37:44;8.70;99.90
2955;DHT22;1487;51.470;6.938;2023-02-03T05:40:12;8.60;99.90
2955;DHT22;1487;51.470;6.938;2023-02-03T05:42:56;8.70;99.90
2955;DHT22;1487;51.470;6.938;2023-02-03T05:45:25;8.70;99.90
2955;DHT22;1487;51.470;6.938;2023-02-03T05:47:51;8.70;99.90
2955;DHT22;1487;51.470;6.938;2023-02-03T05:50:18;8.70;99.90
2955;DHT22;1487;51.470;6.938;2023-02-03T05:52:47;8.70;99.90
2955;DHT22;1487;51.470;6.938;2023-02-03T05:55:14;8.70;99.90
2955;DHT22;1487;51.470;6.938;2023-02-03T05:57:41;8.70;99.90
2955;DHT22;1487;51.470;6.938;2023-02-03T06:00:09;8.70;99.90
2955;DHT22;1487;51.470;6.938;2023-02-03T06:02:37;8.70;99.90
2955;DHT22;1487;51.470;6.938;2023-02-03T06:05:05;8.70;99.90
2955;DHT22;1487;51.470;6.938;2023-02-03T06:07:32;8.70;99.90
2955;DHT22;1487;51.470;6.938;2023-02-03T06:09:58;8.70;99.90
2955;DHT22;1487;51.470;6.938;2023-02-03T06:12:25;8.70;99.90
2955;DHT22;1487;51.470;6.938;2023-02-03T06:14:52;8.80;99.90
2955;DHT22;1487;51.470;6.938;2023-02-03T06:17:19;8.80;99.90
2955;DHT22;1487;51.470;6.938;2023-02-03T06:19:47;8.80;99.90
2955;DHT22;1487;51.470;6.938;2023-02-03T06:22:14;8.80;99.90
2955;DHT22;1487;51.470;6.938;2023-02-03T06:24:41;8.80;99.90
2955;DHT22;1487;51.470;6.938;2023-02-03T06:27:09;8.80;99.90
2955;DHT22;1487;51.470;6.938;2023-02-03T06:29:36;8.80;99.90
2955;DHT22;1487;51.470;6.938;2023-02-03T06:32:03;8.80;99.90
2955;DHT22;1487;51.470;6.938;2023-02-03T06:34:31;8.80;99.90
2955;DHT22;1487;51.470;6.938;2023-02-03T06:36:59;8.80;99.90
2955;DHT22;1487;51.470;6.938;2023-02-03T06:39:26;8.80;99.90
2955;DHT22;1487;51.470;6.938;2023-02-03T06:41:53;8.80;99.90
2955;DHT22;1487;51.470;6.938;2023-02-03T06:44:21;8.80;99.90
2955;DHT22;1487;51.470;6.938;2023-02-03T06:46:48;8.80;99.90
2955;DHT22;1487;51.470;6.938;2023-02-03T06:49:15;8.80;99.90
2955;DHT22;1487;51.470;6.938;2023-02-03T06:51:43;8.80;99.90
2955;DHT22;1487;51.470;6.938;2023-02-03T06:54:11;8.80;99.90
2955;DHT22;1487;51.470;6.938;2023-02-03T06:56:39;8.80;99.90
2955;DHT22;1487;51.470;6.938;2023-02-03T06:59:06;8.90;99.90
2955;DHT22;1487;51.470;6.938;2023-02-03T07:01:33;8.80;99.90
2955;DHT22;1487;51.470;6.938;2023-02-03T07:04:00;8.90;99.90
2955;DHT22;1487;51.470;6.938;2023-02-03T07:06:27;8.90;99.90
2955;DHT22;1487;51.470;6.938;2023-02-03T07:08:57;8.90;99.90
2955;DHT22;1487;51.470;6.938;2023-02-03T07:11:26;8.90;99.90
2955;DHT22;1487;51.470;6.938;2023-02-03T07:13:53;8.90;99.90
2955;DHT22;1487;51.470;6.938;2023-02-03T07:16:20;8.90;99.90
2955;DHT22;1487;51.470;6.938;2023-02-03T07:18:47;8.90;99.90
2955;DHT22;1487;51.470;6.938;2023-02-03T07:21:14;8.90;99.90
2955;DHT22;1487;51.470;6.938;2023-02-03T07:23:41;8.90;99.90
2955;DHT22;1487;51.470;6.938;2023-02-03T07:26:09;8.90;99.90
2955;DHT22;1487;51.470;6.938;2023-02-03T07:28:38;8.90;99.90
2955;DHT22;1487;51.470;6.938;2023-02-03T07:31:05;8.90;99.90
2955;DHT22;1487;51.470;6.938;2023-02-03T07:33:32;8.90;99.90
2955;DHT22;1487;51.470;6.938;2023-02-03T07:35:59;8.90;99.90
2955;DHT22;1487;51.470;6.938;2023-02-03T07:38:27;8.90;99.90
2955;DHT22;1487;51.470;6.938;2023-02-03T07:40:55;8.90;99.90
2955;DHT22;1487;51.470;6.938;2023-02-03T07:43:22;8.90;99.90
2955;DHT22;1487;51.470;6.938;2023-02-03T07:45:50;9.00;99.90
2955;DHT22;1487;51.470;6.938;2023-02-03T07:48:17;8.90;99.90
2955;DHT22;1487;51.470;6.938;2023-02-03T07:50:44;8.90;99.90
2955;DHT22;1487;51.470;6.938;2023-02-03T07:53:11;9.00;99.90
2955;DHT22;1487;51.470;6.938;2023-02-03T07:55:38;9.00;99.90
2955;DHT22;1487;51.470;6.938;2023-02-03T07:58:05;9.00;99.90
2955;DHT22;1487;51.470;6.938;2023-02-03T08:00:32;9.00;99.90
2955;DHT22;1487;51.470;6.938;2023-02-03T08:03:01;9.00;99.90
2955;DHT22;1487;51.470;6.938;2023-02-03T08:05:28;9.00;99.90
2955;DHT22;1487;51.470;6.938;2023-02-03T08:07:55;9.00;99.90
2955;DHT22;1487;51.470;6.938;2023-02-03T08:10:22;8.90;99.90
2955;DHT22;1487;51.470;6.938;2023-02-03T08:12:51;8.90;99.90
2955;DHT22;1487;51.470;6.938;2023-02-03T08:15:18;8.90;99.90
2955;DHT22;1487;51.470;6.938;2023-02-03T08:17:45;9.00;99.90
2955;DHT22;1487;51.470;6.938;2023-02-03T08:20:13;9.00;99.90
2955;DHT22;1487;51.470;6.938;2023-02-03T08:22:41;9.00;99.90
2955;DHT22;1487;51.470;6.938;2023-02-03T08:25:08;9.00;99.90
2955;DHT22;1487;51.470;6.938;2023-02-03T08:27:35;9.00;99.90
2955;DHT22;1487;51.470;6.938;2023-02-03T08:30:03;9.00;99.90
2955;DHT22;1487;51.470;6.938;2023-02-03T08:32:32;9.00;99.90
2955;DHT22;1487;51.470;6.938;2023-02-03T08:34:59;9.00;99.90
2955;DHT22;1487;51.470;6.938;2023-02-03T08:37:27;9.00;99.90
2955;DHT22;1487;51.470;6.938;2023-02-03T08:39:56;9.00;99.90
2955;DHT22;1487;51.470;6.938;2023-02-03T08:42:23;9.00;99.90
2955;DHT22;1487;51.470;6.938;2023-02-03T08:44:50;9.00;99.90
2955;DHT22;1487;51.470;6.938;2023-02-03T08:47:17;9.00;99.90
2955;DHT22;1487;51.470;6.938;2023-02-03T08:49:44;9.00;99.90
2955;DHT22;1487;51.470;6.938;2023-02-03T08:52:11;9.00;99.90
2955;DHT22;1487;51.470;6.938;2023-02-03T08:54:40;9.00;99.90
2955;DHT22;1487;51.470;6.938;2023-02-03T08:57:07;9.00;99.90
2955;DHT22;1487;51.470;6.938;2023-02-03T08:59:36;9.00;99.90
2955;DHT22;1487;51.470;6.938;2023-02-03T09:02:06;9.10;99.90
2955;DHT22;1487;51.470;6.938;2023-02-03T09:04:34;9.10;99.90
2955;DHT22;1487;51.470;6.938;2023-02-03T09:07:02;9.10;99.90
2955;DHT22;1487;51.470;6.938;2023-02-03T09:09:29;9.10;99.90
2955;DHT22;1487;51.470;6.938;2023-02-03T09:11:57;9.10;99.90
2955;DHT22;1487;51.470;6.938;2023-02-03T09:14:27;9.10;99.90
2955;DHT22;1487;51.470;6.938;2023-02-03T09:16:54;9.10;99.90
2955;DHT22;1487;51.470;6.938;2023-02-03T09:19:21;9.10;99.90
2955;DHT22;1487;51.470;6.938;2023-02-03T09:21:48;9.10;99.90
2955;DHT22;1487;51.470;6.938;2023-02-03T09:24:15;9.10;99.90
2955;DHT22;1487;51.470;6.938;2023-02-03T09:26:42;9.10;99.90
2955;DHT22;1487;51.470;6.938;2023-02-03T09:29:10;9.10;99.90
2955;DHT22;1487;51.470;6.938;2023-02-03T09:31:37;9.20;99.90
2955;DHT22;1487;51.470;6.938;2023-02-03T09:34:04;9.10;99.90
2955;DHT22;1487;51.470;6.938;2023-02-03T09:36:31;9.20;99.90
2955;DHT22;1487;51.470;6.938;2023-02-03T09:38:58;9.20;99.90
2955;DHT22;1487;51.470;6.938;2023-02-03T09:41:41;9.10;99.90
2955;DHT22;1487;51.470;6.938;2023-02-03T09:44:15;9.20;99.90
2955;DHT22;1487;51.470;6.938;2023-02-03T09:46:49;9.20;99.90
2955;DHT22;1487;51.470;6.938;2023-02-03T09:49:21;9.20;99.90
2955;DHT22;1487;51.470;6.938;2023-02-03T09:51:52;9.20;99.90
2955;DHT22;1487;51.470;6.938;2023-02-03T09:54:22;9.30;99.90
2955;DHT22;1487;51.470;6.938;2023-02-03T09:56:52;9.30;99.90
2955;DHT22;1487;51.470;6.938;2023-02-03T09:59:21;9.30;99.90
2955;DHT22;1487;51.470;6.938;2023-02-03T10:01:56;9.30;99.90
2955;DHT22;1487;51.470;6.938;2023-02-03T10:04:31;9.30;99.90
2955;DHT22;1487;51.470;6.938;2023-02-03T10:07:07;9.40;99.90
2955;DHT22;1487;51.470;6.938;2023-02-03T10:09:45;9.40;99.90
2955;DHT22;1487;51.470;6.938;2023-02-03T10:15:41;9.50;99.90
2955;DHT22;1487;51.470;6.938;2023-02-03T10:18:13;9.50;99.90
2955;DHT22;1487;51.470;6.938;2023-02-03T10:20:44;9.50;99.90
2955;DHT22;1487;51.470;6.938;2023-02-03T10:23:15;9.50;99.90
2955;DHT22;1487;51.470;6.938;2023-02-03T10:25:47;9.50;99.90
2955;DHT22;1487;51.470;6.938;2023-02-03T10:28:17;9.50;99.90
2955;DHT22;1487;51.470;6.938;2023-02-03T10:30:49;9.50;99.90
2955;DHT22;1487;51.470;6.938;2023-02-03T10:33:18;9.60;99.90
2955;DHT22;1487;51.470;6.938;2023-02-03T10:35:49;9.60;99.90
2955;DHT22;1487;51.470;6.938;2023-02-03T10:38:26;9.60;99.90
2955;DHT22;1487;51.470;6.938;2023-02-03T10:40:56;9.60;99.90
2955;DHT22;1487;51.470;6.938;2023-02-03T10:43:23;9.60;99.90
2955;DHT22;1487;51.470;6.938;2023-02-03T10:46:09;9.60;99.90
2955;DHT22;1487;51.470;6.938;2023-02-03T10:48:36;9.60;99.90
2955;DHT22;1487;51.470;6.938;2023-02-03T10:51:03;9.70;99.90
2955;DHT22;1487;51.470;6.938;2023-02-03T10:53:33;9.60;99.90
2955;DHT22;1487;51.470;6.938;2023-02-03T10:56:03;9.70;99.90
2955;DHT22;1487;51.470;6.938;2023-02-03T10:58:32;9.70;99.90
2955;DHT22;1487;51.470;6.938;2023-02-03T11:01:11;9.80;99.90
2955;DHT22;1487;51.470;6.938;2023-02-03T11:03:41;9.80;99.90
2955;DHT22;1487;51.470;6.938;2023-02-03T11:06:10;9.80;99.90
2955;DHT22;1487;51.470;6.938;2023-02-03T11:08:39;9.80;99.90
2955;DHT22;1487;51.470;6.938;2023-02-03T11:11:09;9.80;99.90
2955;DHT22;1487;51.470;6.938;2023-02-03T11:13:38;9.80;99.90
2955;DHT22;1487;51.470;6.938;2023-02-03T11:16:10;9.80;99.90
2955;DHT22;1487;51.470;6.938;2023-02-03T11:18:43;9.80;99.90
2955;DHT22;1487;51.470;6.938;2023-02-03T11:21:16;9.80;99.90
2955;DHT22;1487;51.470;6.938;2023-02-03T11:23:50;9.80;99.90
2955;DHT22;1487;51.470;6.938;2023-02-03T11:26:21;9.80;99.90
2955;DHT22;1487;51.470;6.938;2023-02-03T11:28:50;9.70;99.90
2955;DHT22;1487;51.470;6.938;2023-02-03T11:31:22;9.80;99.90
2955;DHT22;1487;51.470;6.938;2023-02-03T11:33:56;9.80;99.90
2955;DHT22;1487;51.470;6.938;2023-02-03T11:36:28;9.80;99.90
2955;DHT22;1487;51.470;6.938;2023-02-03T11:39:09;9.80;99.90
2955;DHT22;1487;51.470;6.938;2023-02-03T11:41:38;9.80;99.90
2955;DHT22;1487;51.470;6.938;2023-02-03T11:44:11;9.80;99.90
2955;DHT22;1487;51.470;6.938;2023-02-03T11:46:40;9.80;99.90
2955;DHT22;1487;51.470;6.938;2023-02-03T11:49:16;9.80;99.90
2955;DHT22;1487;51.470;6.938;2023-02-03T11:51:51;9.80;99.90
2955;DHT22;1487;51.470;6.938;2023-02-03T11:54:26;9.90;99.90
2955;DHT22;1487;51.470;6.938;2023-02-03T11:57:17;9.90;99.90
2955;DHT22;1487;51.470;6.938;2023-02-03T12:00:04;9.90;99.90
2955;DHT22;1487;51.470;6.938;2023-02-03T12:06:03;9.90;99.90
2955;DHT22;1487;51.470;6.938;2023-02-03T12:08:45;9.90;99.90
2955;DHT22;1487;51.470;6.938;2023-02-03T12:11:27;10.00;99.90
2955;DHT22;1487;51.470;6.938;2023-02-03T12:14:10;10.00;99.90
2955;DHT22;1487;51.470;6.938;2023-02-03T12:17:08;9.90;99.90
2955;DHT22;1487;51.470;6.938;2023-02-03T12:19:48;10.00;99.90
2955;DHT22;1487;51.470;6.938;2023-02-03T12:22:25;10.00;99.90
2955;DHT22;1487;51.470;6.938;2023-02-03T12:24:59;10.00;99.90
2955;DHT22;1487;51.470;6.938;2023-02-03T12:27:39;10.00;99.90
2955;DHT22;1487;51.470;6.938;2023-02-03T12:30:12;10.00;99.90
2955;DHT22;1487;51.470;6.938;2023-02-03T12:32:44;10.00;99.90
2955;DHT22;1487;51.470;6.938;2023-02-03T12:35:19;10.00;99.90
2955;DHT22;1487;51.470;6.938;2023-02-03T12:37:52;10.00;99.90
2955;DHT22;1487;51.470;6.938;2023-02-03T12:40:28;10.00;99.90
2955;DHT22;1487;51.470;6.938;2023-02-03T12:43:13;10.10;99.90
2955;DHT22;1487;51.470;6.938;2023-02-03T12:45:48;10.10;99.90
2955;DHT22;1487;51.470;6.938;2023-02-03T12:48:20;10.10;99.90
2955;DHT22;1487;51.470;6.938;2023-02-03T12:50:52;10.10;99.90
2955;DHT22;1487;51.470;6.938;2023-02-03T12:53:24;10.00;99.90
2955;DHT22;1487;51.470;6.938;2023-02-03T12:56:00;10.00;99.90
2955;DHT22;1487;51.470;6.938;2023-02-03T12:58:32;9.90;99.90
2955;DHT22;1487;51.470;6.938;2023-02-03T13:01:04;9.90;99.90
2955;DHT22;1487;51.470;6.938;2023-02-03T13:03:38;9.90;99.90
2955;DHT22;1487;51.470;6.938;2023-02-03T13:06:13;9.90;99.90
2955;DHT22;1487;51.470;6.938;2023-02-03T13:08:45;9.90;99.90
2955;DHT22;1487;51.470;6.938;2023-02-03T13:11:21;9.80;99.90
2955;DHT22;1487;51.470;6.938;2023-02-03T13:13:52;9.90;99.90
2955;DHT22;1487;51.470;6.938;2023-02-03T13:16:25;9.90;99.90
2955;DHT22;1487;51.470;6.938;2023-02-03T13:18:58;10.00;99.90
2955;DHT22;1487;51.470;6.938;2023-02-03T13:21:29;10.00;99.90
2955;DHT22;1487;51.470;6.938;2023-02-03T13:23:56;10.00;99.90
2955;DHT22;1487;51.470;6.938;2023-02-03T13:26:47;10.10;99.90
2955;DHT22;1487;51.470;6.938;2023-02-03T13:29:34;10.20;99.90
2955;DHT22;1487;51.470;6.938;2023-02-03T13:32:13;10.20;99.90
2955;DHT22;1487;51.470;6.938;2023-02-03T13:34:56;10.20;99.90
2955;DHT22;1487;51.470;6.938;2023-02-03T13:37:47;10.20;99.90
2955;DHT22;1487;51.470;6.938;2023-02-03T13:40:28;10.30;99.90
2955;DHT22;1487;51.470;6.938;2023-02-03T13:43:02;10.30;99.90
2955;DHT22;1487;51.470;6.938;2023-02-03T13:45:32;10.30;99.90
2955;DHT22;1487;51.470;6.938;2023-02-03T13:48:08;10.30;99.90
2955;DHT22;1487;51.470;6.938;2023-02-03T13:50:37;10.30;99.90
2955;DHT22;1487;51.470;6.938;2023-02-03T13:53:15;10.30;99.90
2955;DHT22;1487;51.470;6.938;2023-02-03T13:55:52;10.30;99.90
2955;DHT22;1487;51.470;6.938;2023-02-03T13:58:22;10.30;99.90
2955;DHT22;1487;51.470;6.938;2023-02-03T14:03:48;10.20;99.90
2955;DHT22;1487;51.470;6.938;2023-02-03T14:09:34;10.10;99.90
2955;DHT22;1487;51.470;6.938;2023-02-03T14:15:32;9.70;99.90
2955;DHT22;1487;51.470;6.938;2023-02-03T14:18:29;9.60;99.90
2955;DHT22;1487;51.470;6.938;2023-02-03T14:21:17;9.40;99.90
2955;DHT22;1487;51.470;6.938;2023-02-03T14:23:49;9.20;99.90
2955;DHT22;1487;51.470;6.938;2023-02-03T14:26:28;9.10;99.90
2955;DHT22;1487;51.470;6.938;2023-02-03T14:28:55;9.00;99.90
2955;DHT22;1487;51.470;6.938;2023-02-03T14:31:23;8.90;99.90
2955;DHT22;1487;51.470;6.938;2023-02-03T14:34:11;8.80;99.90
2955;DHT22;1487;51.470;6.938;2023-02-03T14:36:42;8.70;99.90
2955;DHT22;1487;51.470;6.938;2023-02-03T14:39:36;8.70;99.90
2955;DHT22;1487;51.470;6.938;2023-02-03T14:42:16;8.60;99.90
2955;DHT22;1487;51.470;6.938;2023-02-03T14:44:55;8.50;99.90
2955;DHT22;1487;51.470;6.938;2023-02-03T14:47:39;8.50;99.90
2955;DHT22;1487;51.470;6.938;2023-02-03T14:50:19;8.40;99.90
2955;DHT22;1487;51.470;6.938;2023-02-03T14:53:05;8.40;99.90
2955;DHT22;1487;51.470;6.938;2023-02-03T14:55:42;8.40;99.90
2955;DHT22;1487;51.470;6.938;2023-02-03T14:58:21;8.40;99.90
2955;DHT22;1487;51.470;6.938;2023-02-03T15:00:49;8.40;99.90
2955;DHT22;1487;51.470;6.938;2023-02-03T15:03:26;8.40;99.90
2955;DHT22;1487;51.470;6.938;2023-02-03T15:05:59;8.40;99.90
2955;DHT22;1487;51.470;6.938;2023-02-03T15:08:38;8.40;99.90
2955;DHT22;1487;51.470;6.938;2023-02-03T15:11:23;8.40;99.90
2955;DHT22;1487;51.470;6.938;2023-02-03T15:13:51;8.50;99.90
2955;DHT22;1487;51.470;6.938;2023-02-03T15:16:20;8.50;99.90
2955;DHT22;1487;51.470;6.938;2023-02-03T15:18:53;8.40;99.90
2955;DHT22;1487;51.470;6.938;2023-02-03T15:21:21;8.50;99.90
2955;DHT22;1487;51.470;6.938;2023-02-03T15:23:48;8.50;99.90
2955;DHT22;1487;51.470;6.938;2023-02-03T15:26:18;8.50;99.90
2955;DHT22;1487;51.470;6.938;2023-02-03T15:28:55;8.50;99.90
2955;DHT22;1487;51.470;6.938;2023-02-03T15:31:25;8.50;99.90
2955;DHT22;1487;51.470;6.938;2023-02-03T15:33:57;8.50;99.90
2955;DHT22;1487;51.470;6.938;2023-02-03T15:36:33;8.50;99.90
2955;DHT22;1487;51.470;6.938;2023-02-03T15:39:09;8.50;99.90
2955;DHT22;1487;51.470;6.938;2023-02-03T15:41:38;8.50;99.90
2955;DHT22;1487;51.470;6.938;2023-02-03T15:44:11;8.60;99.90
2955;DHT22;1487;51.470;6.938;2023-02-03T15:46:41;8.60;99.90
2955;DHT22;1487;51.470;6.938;2023-02-03T15:49:12;8.50;99.90
2955;DHT22;1487;51.470;6.938;2023-02-03T15:51:45;8.50;99.90
2955;DHT22;1487;51.470;6.938;2023-02-03T15:54:17;8.50;99.90
2955;DHT22;1487;51.470;6.938;2023-02-03T15:56:49;8.50;99.90
2955;DHT22;1487;51.470;6.938;2023-02-03T15:59:25;8.50;99.90
2955;DHT22;1487;51.470;6.938;2023-02-03T16:01:55;8.50;99.90
2955;DHT22;1487;51.470;6.938;2023-02-03T16:04:23;8.50;99.90
2955;DHT22;1487;51.470;6.938;2023-02-03T16:06:51;8.50;99.90
2955;DHT22;1487;51.470;6.938;2023-02-03T16:09:29;8.50;99.90
2955;DHT22;1487;51.470;6.938;2023-02-03T16:12:04;8.50;99.90
2955;DHT22;1487;51.470;6.938;2023-02-03T16:14:34;8.40;99.90
2955;DHT22;1487;51.470;6.938;2023-02-03T16:17:01;8.40;99.90
2955;DHT22;1487;51.470;6.938;2023-02-03T16:19:29;8.40;99.90
2955;DHT22;1487;51.470;6.938;2023-02-03T16:21:58;8.40;99.90
2955;DHT22;1487;51.470;6.938;2023-02-03T16:24:37;8.40;99.90
2955;DHT22;1487;51.470;6.938;2023-02-03T16:27:29;8.40;99.90
2955;DHT22;1487;51.470;6.938;2023-02-03T16:30:18;8.40;99.90
2955;DHT22;1487;51.470;6.938;2023-02-03T16:33:10;8.30;99.90
2955;DHT22;1487;51.470;6.938;2023-02-03T16:35:56;8.30;99.90
2955;DHT22;1487;51.470;6.938;2023-02-03T16:38:43;8.30;99.90
2955;DHT22;1487;51.470;6.938;2023-02-03T16:41:27;8.40;99.90
2955;DHT22;1487;51.470;6.938;2023-02-03T16:44:12;8.30;99.90
2955;DHT22;1487;51.470;6.938;2023-02-03T16:46:57;8.30;99.90
2955;DHT22;1487;51.470;6.938;2023-02-03T16:49:41;8.30;99.90
2955;DHT22;1487;51.470;6.938;2023-02-03T16:52:25;8.40;99.90
2955;DHT22;1487;51.470;6.938;2023-02-03T16:54:53;8.30;99.90
2955;DHT22;1487;51.470;6.938;2023-02-03T16:57:20;8.30;99.90
2955;DHT22;1487;51.470;6.938;2023-02-03T16:59:46;8.30;99.90
2955;DHT22;1487;51.470;6.938;2023-02-03T17:02:15;8.30;99.90
2955;DHT22;1487;51.470;6.938;2023-02-03T17:04:41;8.30;99.90
2955;DHT22;1487;51.470;6.938;2023-02-03T17:07:08;8.30;99.90